sensor_id;sensor_type;location;lat;lon;timestamp;temperature;humidity
10986;DHT22;5546;48.714;8.738;2024-02-04T00:01:40;11.50;97.50
10986;DHT22;5546;48.714;8.738;2024-02-04T00:04:05;11.20;98.20
10986;DHT22;5546;48.714;8.738;2024-02-04T00:06:31;11.50;97.80
10986;DHT22;5546;48.714;8.738;2024-02-04T00:08:57;11.60;97.30
10986;DHT22;5546;48.714;8.738;2024-02-04T00:11:22;11.70;97.50
10986;DHT22;5546;48.714;8.738;2024-02-04T00:13:48;11.80;97.40
10986;DHT22;5546;48.714;8.738;2024-02-04T00:16:14;11.80;97.60
10986;DHT22;5546;48.714;8.738;2024-02-04T00:18:39;11.70;97.20
10986;DHT22;5546;48.714;8.738;2024-02-04T00:21:05;11.40;97.50
10986;DHT22;5546;48.714;8.738;2024-02-04T00:23:30;11.50;97.50
10986;DHT22;5546;48.714;8.738;2024-02-04T00:25:56;11.70;97.50
10986;DHT22;5546;48.714;8.738;2024-02-04T00:28:21;11.80;97.40
10986;DHT22;5546;48.714;8.738;2024-02-04T00:30:47;11.70;97.40
10986;DHT22;5546;48.714;8.738;2024-02-04T00:33:15;11.60;97.80
10986;DHT22;5546;48.714;8.738;2024-02-04T00:35:41;11.60;97.70
10986;DHT22;5546;48.714;8.738;2024-02-04T00:38:07;11.40;98.10
10986;DHT22;5546;48.714;8.738;2024-02-04T00:40:34;11.40;97.60
10986;DHT22;5546;48.714;8.738;2024-02-04T00:42:59;11.40;97.90
10986;DHT22;5546;48.714;8.738;2024-02-04T00:47:51;11.10;98.40
10986;DHT22;5546;48.714;8.738;2024-02-04T00:50:17;11.30;97.80
10986;DHT22;5546;48.714;8.738;2024-02-04T00:52:43;11.20;97.80
10986;DHT22;5546;48.714;8.738;2024-02-04T00:55:08;10.80;98.40
10986;DHT22;5546;48.714;8.738;2024-02-04T00:57:34;10.80;98.70
10986;DHT22;5546;48.714;8.738;2024-02-04T00:59:59;10.70;98.90
10986;DHT22;5546;48.714;8.738;2024-02-04T01:02:25;10.60;98.80
10986;DHT22;5546;48.714;8.738;2024-02-04T01:04:50;10.60;98.90
10986;DHT22;5546;48.714;8.738;2024-02-04T01:07:17;10.60;99.20
10986;DHT22;5546;48.714;8.738;2024-02-04T01:09:42;10.70;98.60
10986;DHT22;5546;48.714;8.738;2024-02-04T01:12:08;10.70;98.30
10986;DHT22;5546;48.714;8.738;2024-02-04T01:14:34;10.90;98.30
10986;DHT22;5546;48.714;8.738;2024-02-04T01:16:59;11.00;97.90
10986;DHT22;5546;48.714;8.738;2024-02-04T01:21:51;11.60;96.90
10986;DHT22;5546;48.714;8.738;2024-02-04T01:24:16;11.70;97.20
10986;DHT22;5546;48.714;8.738;2024-02-04T01:26:42;11.80;97.50
10986;DHT22;5546;48.714;8.738;2024-02-04T01:29:08;11.90;96.40
10986;DHT22;5546;48.714;8.738;2024-02-04T01:31:33;11.70;96.50
10986;DHT22;5546;48.714;8.738;2024-02-04T01:33:59;11.50;96.80
10986;DHT22;5546;48.714;8.738;2024-02-04T01:36:24;11.20;97.40
10986;DHT22;5546;48.714;8.738;2024-02-04T01:38:50;11.20;97.70
10986;DHT22;5546;48.714;8.738;2024-02-04T01:41:15;10.80;97.90
10986;DHT22;5546;48.714;8.738;2024-02-04T01:43:41;10.60;98.50
10986;DHT22;5546;48.714;8.738;2024-02-04T01:46:07;10.60;98.20
10986;DHT22;5546;48.714;8.738;2024-02-04T01:48:33;10.70;98.40
10986;DHT22;5546;48.714;8.738;2024-02-04T01:50:59;10.80;98.40
10986;DHT22;5546;48.714;8.738;2024-02-04T01:53:28;10.70;98.60
10986;DHT22;5546;48.714;8.738;2024-02-04T01:55:55;10.70;98.90
10986;DHT22;5546;48.714;8.738;2024-02-04T01:58:21;10.50;99.00
10986;DHT22;5546;48.714;8.738;2024-02-04T02:00:48;10.50;98.80
10986;DHT22;5546;48.714;8.738;2024-02-04T02:03:15;10.50;98.90
10986;DHT22;5546;48.714;8.738;2024-02-04T02:05:41;10.40;99.20
10986;DHT22;5546;48.714;8.738;2024-02-04T02:08:07;10.20;98.90
10986;DHT22;5546;48.714;8.738;2024-02-04T02:10:32;9.80;99.50
10986;DHT22;5546;48.714;8.738;2024-02-04T02:13:11;9.60;99.90
10986;DHT22;5546;48.714;8.738;2024-02-04T02:15:45;9.70;99.90
10986;DHT22;5546;48.714;8.738;2024-02-04T02:18:15;9.90;99.90
10986;DHT22;5546;48.714;8.738;2024-02-04T02:20:55;10.00;99.50
10986;DHT22;5546;48.714;8.738;2024-02-04T02:23:30;10.40;99.00
10986;DHT22;5546;48.714;8.738;2024-02-04T02:28:22;9.90;99.70
10986;DHT22;5546;48.714;8.738;2024-02-04T02:30:47;10.00;99.70
10986;DHT22;5546;48.714;8.738;2024-02-04T02:33:13;10.10;99.30
10986;DHT22;5546;48.714;8.738;2024-02-04T02:35:39;10.10;99.60
10986;DHT22;5546;48.714;8.738;2024-02-04T02:38:20;10.80;98.80
10986;DHT22;5546;48.714;8.738;2024-02-04T02:40:54;10.90;98.70
10986;DHT22;5546;48.714;8.738;2024-02-04T02:43:23;10.90;98.90
10986;DHT22;5546;48.714;8.738;2024-02-04T02:45:49;10.90;99.10
10986;DHT22;5546;48.714;8.738;2024-02-04T02:48:15;10.80;98.80
10986;DHT22;5546;48.714;8.738;2024-02-04T02:50:41;10.80;99.10
10986;DHT22;5546;48.714;8.738;2024-02-04T02:53:06;11.10;98.70
10986;DHT22;5546;48.714;8.738;2024-02-04T02:55:32;11.20;98.50
10986;DHT22;5546;48.714;8.738;2024-02-04T02:57:57;11.10;98.10
10986;DHT22;5546;48.714;8.738;2024-02-04T03:00:23;10.40;99.20
10986;DHT22;5546;48.714;8.738;2024-02-04T03:02:49;10.00;99.60
10986;DHT22;5546;48.714;8.738;2024-02-04T03:05:17;10.70;99.20
10986;DHT22;5546;48.714;8.738;2024-02-04T03:07:43;10.60;98.90
10986;DHT22;5546;48.714;8.738;2024-02-04T03:10:09;11.00;98.50
10986;DHT22;5546;48.714;8.738;2024-02-04T03:12:35;10.80;98.60
10986;DHT22;5546;48.714;8.738;2024-02-04T03:15:01;11.00;98.60
10986;DHT22;5546;48.714;8.738;2024-02-04T03:17:26;10.80;98.30
10986;DHT22;5546;48.714;8.738;2024-02-04T03:19:52;10.10;99.40
10986;DHT22;5546;48.714;8.738;2024-02-04T03:22:20;9.80;99.90
10986;DHT22;5546;48.714;8.738;2024-02-04T03:24:47;9.80;99.90
10986;DHT22;5546;48.714;8.738;2024-02-04T03:27:12;10.20;99.70
10986;DHT22;5546;48.714;8.738;2024-02-04T03:29:38;10.40;99.70
10986;DHT22;5546;48.714;8.738;2024-02-04T03:32:04;10.60;99.30
10986;DHT22;5546;48.714;8.738;2024-02-04T03:34:29;10.60;99.10
10986;DHT22;5546;48.714;8.738;2024-02-04T03:36:55;10.80;98.90
10986;DHT22;5546;48.714;8.738;2024-02-04T03:39:20;10.70;98.70
10986;DHT22;5546;48.714;8.738;2024-02-04T03:44:12;10.30;99.60
10986;DHT22;5546;48.714;8.738;2024-02-04T03:49:06;10.70;99.40
10986;DHT22;5546;48.714;8.738;2024-02-04T03:51:32;11.30;98.50
10986;DHT22;5546;48.714;8.738;2024-02-04T03:53:57;11.50;97.80
10986;DHT22;5546;48.714;8.738;2024-02-04T03:56:23;11.50;98.10
10986;DHT22;5546;48.714;8.738;2024-02-04T03:58:48;11.40;97.60
10986;DHT22;5546;48.714;8.738;2024-02-04T04:01:14;11.00;98.50
10986;DHT22;5546;48.714;8.738;2024-02-04T04:03:41;11.20;98.20
10986;DHT22;5546;48.714;8.738;2024-02-04T04:08:32;11.00;98.50
10986;DHT22;5546;48.714;8.738;2024-02-04T04:10:58;11.30;98.20
10986;DHT22;5546;48.714;8.738;2024-02-04T04:13:23;11.30;98.20
10986;DHT22;5546;48.714;8.738;2024-02-04T04:15:51;11.40;98.00
10986;DHT22;5546;48.714;8.738;2024-02-04T04:18:16;11.10;98.30
10986;DHT22;5546;48.714;8.738;2024-02-04T04:23:08;11.10;98.40
10986;DHT22;5546;48.714;8.738;2024-02-04T04:25:33;11.40;97.70
10986;DHT22;5546;48.714;8.738;2024-02-04T04:27:59;11.00;98.10
10986;DHT22;5546;48.714;8.738;2024-02-04T04:30:24;11.10;98.50
10986;DHT22;5546;48.714;8.738;2024-02-04T04:32:50;11.00;98.40
10986;DHT22;5546;48.714;8.738;2024-02-04T04:37:42;10.50;98.70
10986;DHT22;5546;48.714;8.738;2024-02-04T04:40:08;10.90;98.70
10986;DHT22;5546;48.714;8.738;2024-02-04T04:42:33;10.80;98.30
10986;DHT22;5546;48.714;8.738;2024-02-04T04:44:59;10.70;98.60
10986;DHT22;5546;48.714;8.738;2024-02-04T04:47:24;11.10;98.20
10986;DHT22;5546;48.714;8.738;2024-02-04T04:49:50;10.80;98.50
10986;DHT22;5546;48.714;8.738;2024-02-04T04:52:16;10.80;98.30
10986;DHT22;5546;48.714;8.738;2024-02-04T04:54:42;10.80;98.30
10986;DHT22;5546;48.714;8.738;2024-02-04T04:57:07;10.80;98.30
10986;DHT22;5546;48.714;8.738;2024-02-04T04:59:33;10.80;98.40
10986;DHT22;5546;48.714;8.738;2024-02-04T05:01:58;10.70;98.80
10986;DHT22;5546;48.714;8.738;2024-02-04T05:04:24;10.70;98.70
10986;DHT22;5546;48.714;8.738;2024-02-04T05:06:51;11.00;98.70
10986;DHT22;5546;48.714;8.738;2024-02-04T05:09:16;11.00;98.70
10986;DHT22;5546;48.714;8.738;2024-02-04T05:11:42;11.10;98.30
10986;DHT22;5546;48.714;8.738;2024-02-04T05:14:08;11.00;98.40
10986;DHT22;5546;48.714;8.738;2024-02-04T05:19:01;10.90;98.10
10986;DHT22;5546;48.714;8.738;2024-02-04T05:21:27;10.60;98.30
10986;DHT22;5546;48.714;8.738;2024-02-04T05:23:52;10.80;98.70
10986;DHT22;5546;48.714;8.738;2024-02-04T05:26:18;11.20;98.30
10986;DHT22;5546;48.714;8.738;2024-02-04T05:28:46;11.30;97.50
10986;DHT22;5546;48.714;8.738;2024-02-04T05:31:12;11.20;97.40
10986;DHT22;5546;48.714;8.738;2024-02-04T05:33:37;10.80;98.20
10986;DHT22;5546;48.714;8.738;2024-02-04T05:36:03;10.60;98.40
10986;DHT22;5546;48.714;8.738;2024-02-04T05:38:29;11.00;98.10
10986;DHT22;5546;48.714;8.738;2024-02-04T05:40:54;11.10;97.90
10986;DHT22;5546;48.714;8.738;2024-02-04T05:43:20;11.20;97.60
10986;DHT22;5546;48.714;8.738;2024-02-04T05:45:46;11.30;97.30
10986;DHT22;5546;48.714;8.738;2024-02-04T05:48:11;11.00;97.70
10986;DHT22;5546;48.714;8.738;2024-02-04T05:50:37;10.80;98.40
10986;DHT22;5546;48.714;8.738;2024-02-04T05:53:03;10.90;98.40
10986;DHT22;5546;48.714;8.738;2024-02-04T05:55:29;10.70;98.60
10986;DHT22;5546;48.714;8.738;2024-02-04T05:57:54;10.80;98.30
10986;DHT22;5546;48.714;8.738;2024-02-04T06:00:20;10.50;98.60
10986;DHT22;5546;48.714;8.738;2024-02-04T06:02:45;10.60;98.70
10986;DHT22;5546;48.714;8.738;2024-02-04T06:05:13;10.50;98.90
10986;DHT22;5546;48.714;8.738;2024-02-04T06:07:39;10.80;98.90
10986;DHT22;5546;48.714;8.738;2024-02-04T06:10:08;11.00;98.20
10986;DHT22;5546;48.714;8.738;2024-02-04T06:12:34;10.90;98.30
10986;DHT22;5546;48.714;8.738;2024-02-04T06:14:59;10.90;98.50
10986;DHT22;5546;48.714;8.738;2024-02-04T06:17:25;10.80;98.30
10986;DHT22;5546;48.714;8.738;2024-02-04T06:19:50;10.70;98.60
10986;DHT22;5546;48.714;8.738;2024-02-04T06:22:16;10.30;99.50
10986;DHT22;5546;48.714;8.738;2024-02-04T06:24:41;10.50;99.60
10986;DHT22;5546;48.714;8.738;2024-02-04T06:27:11;10.90;99.00
10986;DHT22;5546;48.714;8.738;2024-02-04T06:29:36;11.10;98.10
10986;DHT22;5546;48.714;8.738;2024-02-04T06:32:02;11.00;98.30
10986;DHT22;5546;48.714;8.738;2024-02-04T06:34:28;11.20;98.30
10986;DHT22;5546;48.714;8.738;2024-02-04T06:36:54;11.20;97.80
10986;DHT22;5546;48.714;8.738;2024-02-04T06:39:19;11.10;98.00
10986;DHT22;5546;48.714;8.738;2024-02-04T06:41:45;11.00;98.70
10986;DHT22;5546;48.714;8.738;2024-02-04T06:44:13;11.00;99.30
10986;DHT22;5546;48.714;8.738;2024-02-04T06:46:39;11.30;97.90
10986;DHT22;5546;48.714;8.738;2024-02-04T06:49:04;11.20;97.90
10986;DHT22;5546;48.714;8.738;2024-02-04T06:51:30;11.00;98.50
10986;DHT22;5546;48.714;8.738;2024-02-04T06:53:55;11.00;98.40
10986;DHT22;5546;48.714;8.738;2024-02-04T06:56:21;11.00;98.70
10986;DHT22;5546;48.714;8.738;2024-02-04T06:58:46;10.60;98.80
10986;DHT22;5546;48.714;8.738;2024-02-04T07:01:12;10.60;99.10
10986;DHT22;5546;48.714;8.738;2024-02-04T07:03:37;11.20;98.20
10986;DHT22;5546;48.714;8.738;2024-02-04T07:06:04;11.50;97.80
10986;DHT22;5546;48.714;8.738;2024-02-04T07:08:29;11.60;97.40
10986;DHT22;5546;48.714;8.738;2024-02-04T07:10:55;11.30;97.60
10986;DHT22;5546;48.714;8.738;2024-02-04T07:13:21;10.90;98.40
10986;DHT22;5546;48.714;8.738;2024-02-04T07:15:47;10.70;98.70
10986;DHT22;5546;48.714;8.738;2024-02-04T07:18:12;10.80;98.70
10986;DHT22;5546;48.714;8.738;2024-02-04T07:20:38;10.80;98.80
10986;DHT22;5546;48.714;8.738;2024-02-04T07:23:04;10.70;99.00
10986;DHT22;5546;48.714;8.738;2024-02-04T07:25:30;10.70;99.10
10986;DHT22;5546;48.714;8.738;2024-02-04T07:27:55;11.10;98.50
10986;DHT22;5546;48.714;8.738;2024-02-04T07:30:22;11.50;97.90
10986;DHT22;5546;48.714;8.738;2024-02-04T07:32:48;11.10;98.00
10986;DHT22;5546;48.714;8.738;2024-02-04T07:37:39;11.10;98.40
10986;DHT22;5546;48.714;8.738;2024-02-04T07:40:05;11.00;98.40
10986;DHT22;5546;48.714;8.738;2024-02-04T07:42:31;11.00;98.80
10986;DHT22;5546;48.714;8.738;2024-02-04T07:44:57;11.00;98.60
10986;DHT22;5546;48.714;8.738;2024-02-04T07:49:49;11.50;97.90
10986;DHT22;5546;48.714;8.738;2024-02-04T07:52:15;11.90;97.40
10986;DHT22;5546;48.714;8.738;2024-02-04T07:54:40;12.20;96.70
10986;DHT22;5546;48.714;8.738;2024-02-04T07:59:32;12.10;96.30
10986;DHT22;5546;48.714;8.738;2024-02-04T08:01:58;11.90;97.00
10986;DHT22;5546;48.714;8.738;2024-02-04T08:04:24;11.90;97.10
10986;DHT22;5546;48.714;8.738;2024-02-04T08:06:49;11.60;97.10
10986;DHT22;5546;48.714;8.738;2024-02-04T08:09:15;11.10;98.10
10986;DHT22;5546;48.714;8.738;2024-02-04T08:11:40;11.00;98.30
10986;DHT22;5546;48.714;8.738;2024-02-04T08:14:06;11.10;98.20
10986;DHT22;5546;48.714;8.738;2024-02-04T08:16:32;11.30;98.00
10986;DHT22;5546;48.714;8.738;2024-02-04T08:18:58;11.70;97.40
10986;DHT22;5546;48.714;8.738;2024-02-04T08:21:24;12.30;96.90
10986;DHT22;5546;48.714;8.738;2024-02-04T08:23:49;12.70;95.80
10986;DHT22;5546;48.714;8.738;2024-02-04T08:26:15;12.90;95.30
10986;DHT22;5546;48.714;8.738;2024-02-04T08:28:40;13.50;94.80
10986;DHT22;5546;48.714;8.738;2024-02-04T08:31:06;13.40;94.50
10986;DHT22;5546;48.714;8.738;2024-02-04T08:33:32;13.90;94.00
10986;DHT22;5546;48.714;8.738;2024-02-04T08:35:57;13.90;93.50
10986;DHT22;5546;48.714;8.738;2024-02-04T08:38:23;13.90;93.80
10986;DHT22;5546;48.714;8.738;2024-02-04T08:40:48;15.00;92.60
10986;DHT22;5546;48.714;8.738;2024-02-04T08:43:14;15.50;91.70
10986;DHT22;5546;48.714;8.738;2024-02-04T08:45:39;15.90;90.90
10986;DHT22;5546;48.714;8.738;2024-02-04T08:48:05;15.60;90.50
10986;DHT22;5546;48.714;8.738;2024-02-04T08:50:31;15.50;91.00
10986;DHT22;5546;48.714;8.738;2024-02-04T08:52:58;15.40;90.70
10986;DHT22;5546;48.714;8.738;2024-02-04T08:55:23;15.50;90.80
10986;DHT22;5546;48.714;8.738;2024-02-04T08:57:49;15.40;90.70
10986;DHT22;5546;48.714;8.738;2024-02-04T09:00:15;15.10;91.20
10986;DHT22;5546;48.714;8.738;2024-02-04T09:02:41;14.90;91.70
10986;DHT22;5546;48.714;8.738;2024-02-04T09:07:33;15.20;91.00
10986;DHT22;5546;48.714;8.738;2024-02-04T09:12:24;14.50;91.70
10986;DHT22;5546;48.714;8.738;2024-02-04T09:14:50;14.20;92.40
10986;DHT22;5546;48.714;8.738;2024-02-04T09:19:41;14.60;91.80
10986;DHT22;5546;48.714;8.738;2024-02-04T09:22:07;14.50;91.60
10986;DHT22;5546;48.714;8.738;2024-02-04T09:24:33;15.00;91.30
10986;DHT22;5546;48.714;8.738;2024-02-04T09:29:24;15.00;91.10
10986;DHT22;5546;48.714;8.738;2024-02-04T09:31:49;14.50;91.60
10986;DHT22;5546;48.714;8.738;2024-02-04T09:36:43;14.50;91.90
10986;DHT22;5546;48.714;8.738;2024-02-04T09:39:09;14.80;91.80
10986;DHT22;5546;48.714;8.738;2024-02-04T09:41:35;15.00;91.40
10986;DHT22;5546;48.714;8.738;2024-02-04T09:44:02;15.10;91.40
10986;DHT22;5546;48.714;8.738;2024-02-04T09:46:29;15.60;90.70
10986;DHT22;5546;48.714;8.738;2024-02-04T09:48:55;15.50;90.50
10986;DHT22;5546;48.714;8.738;2024-02-04T09:51:21;15.40;90.60
10986;DHT22;5546;48.714;8.738;2024-02-04T09:53:51;15.20;90.60
10986;DHT22;5546;48.714;8.738;2024-02-04T09:56:18;15.00;91.10
10986;DHT22;5546;48.714;8.738;2024-02-04T09:58:44;14.30;91.70
10986;DHT22;5546;48.714;8.738;2024-02-04T10:01:10;14.20;92.40
10986;DHT22;5546;48.714;8.738;2024-02-04T10:03:37;14.40;92.10
10986;DHT22;5546;48.714;8.738;2024-02-04T10:06:03;14.60;92.20
10986;DHT22;5546;48.714;8.738;2024-02-04T10:08:28;15.40;91.10
10986;DHT22;5546;48.714;8.738;2024-02-04T10:10:54;15.70;90.40
10986;DHT22;5546;48.714;8.738;2024-02-04T10:13:20;15.90;90.20
10986;DHT22;5546;48.714;8.738;2024-02-04T10:15:47;16.10;89.10
10986;DHT22;5546;48.714;8.738;2024-02-04T10:18:13;16.20;90.10
10986;DHT22;5546;48.714;8.738;2024-02-04T10:20:39;16.70;89.00
10986;DHT22;5546;48.714;8.738;2024-02-04T10:23:04;17.50;86.50
10986;DHT22;5546;48.714;8.738;2024-02-04T10:25:30;18.30;84.30
10986;DHT22;5546;48.714;8.738;2024-02-04T10:30:23;18.30;83.10
10986;DHT22;5546;48.714;8.738;2024-02-04T10:32:53;17.20;84.70
10986;DHT22;5546;48.714;8.738;2024-02-04T10:35:20;15.20;90.10
10986;DHT22;5546;48.714;8.738;2024-02-04T10:37:48;15.20;90.70
10986;DHT22;5546;48.714;8.738;2024-02-04T10:40:14;16.30;89.60
10986;DHT22;5546;48.714;8.738;2024-02-04T10:42:42;17.50;86.30
10986;DHT22;5546;48.714;8.738;2024-02-04T10:45:09;18.60;83.00
10986;DHT22;5546;48.714;8.738;2024-02-04T10:47:37;19.10;80.40
10986;DHT22;5546;48.714;8.738;2024-02-04T10:50:03;19.10;80.80
10986;DHT22;5546;48.714;8.738;2024-02-04T10:52:38;18.70;81.60
10986;DHT22;5546;48.714;8.738;2024-02-04T10:55:11;18.90;80.80
10986;DHT22;5546;48.714;8.738;2024-02-04T10:57:38;18.70;80.80
10986;DHT22;5546;48.714;8.738;2024-02-04T11:00:04;18.80;80.40
10986;DHT22;5546;48.714;8.738;2024-02-04T11:02:34;18.40;81.30
10986;DHT22;5546;48.714;8.738;2024-02-04T11:05:00;17.30;83.60
10986;DHT22;5546;48.714;8.738;2024-02-04T11:07:33;16.10;87.40
10986;DHT22;5546;48.714;8.738;2024-02-04T11:10:02;15.70;89.20
10986;DHT22;5546;48.714;8.738;2024-02-04T11:12:29;15.50;90.10
10986;DHT22;5546;48.714;8.738;2024-02-04T11:14:58;15.30;90.90
10986;DHT22;5546;48.714;8.738;2024-02-04T11:23:42;16.20;89.60
10986;DHT22;5546;48.714;8.738;2024-02-04T11:26:11;16.50;88.50
10986;DHT22;5546;48.714;8.738;2024-02-04T11:28:37;16.30;88.60
10986;DHT22;5546;48.714;8.738;2024-02-04T11:31:03;15.60;90.20
10986;DHT22;5546;48.714;8.738;2024-02-04T11:33:28;15.90;90.00
10986;DHT22;5546;48.714;8.738;2024-02-04T11:36:04;16.00;89.70
10986;DHT22;5546;48.714;8.738;2024-02-04T11:38:31;15.80;90.40
10986;DHT22;5546;48.714;8.738;2024-02-04T11:40:57;15.30;91.00
10986;DHT22;5546;48.714;8.738;2024-02-04T11:43:23;14.80;91.60
10986;DHT22;5546;48.714;8.738;2024-02-04T11:45:52;14.40;92.00
10986;DHT22;5546;48.714;8.738;2024-02-04T11:50:52;14.30;92.60
10986;DHT22;5546;48.714;8.738;2024-02-04T11:53:18;14.40;92.30
10986;DHT22;5546;48.714;8.738;2024-02-04T11:55:45;14.60;92.50
10986;DHT22;5546;48.714;8.738;2024-02-04T11:58:11;14.30;92.50
10986;DHT22;5546;48.714;8.738;2024-02-04T12:03:04;14.50;92.60
10986;DHT22;5546;48.714;8.738;2024-02-04T12:05:34;14.90;92.00
10986;DHT22;5546;48.714;8.738;2024-02-04T12:08:02;14.90;91.90
10986;DHT22;5546;48.714;8.738;2024-02-04T12:10:29;14.70;92.20
10986;DHT22;5546;48.714;8.738;2024-02-04T12:12:55;13.70;93.40
10986;DHT22;5546;48.714;8.738;2024-02-04T12:15:21;13.20;94.20
10986;DHT22;5546;48.714;8.738;2024-02-04T12:22:40;13.90;93.30
10986;DHT22;5546;48.714;8.738;2024-02-04T12:27:31;14.00;92.90
10986;DHT22;5546;48.714;8.738;2024-02-04T12:29:57;14.00;92.80
10986;DHT22;5546;48.714;8.738;2024-02-04T12:32:24;14.10;92.90
10986;DHT22;5546;48.714;8.738;2024-02-04T12:34:49;13.80;93.10
10986;DHT22;5546;48.714;8.738;2024-02-04T12:37:19;14.30;92.80
10986;DHT22;5546;48.714;8.738;2024-02-04T12:39:45;13.80;93.00
10986;DHT22;5546;48.714;8.738;2024-02-04T12:42:14;13.70;93.40
10986;DHT22;5546;48.714;8.738;2024-02-04T12:44:44;13.80;93.30
10986;DHT22;5546;48.714;8.738;2024-02-04T12:47:09;13.60;93.20
10986;DHT22;5546;48.714;8.738;2024-02-04T12:49:35;13.40;93.80
10986;DHT22;5546;48.714;8.738;2024-02-04T12:52:07;13.50;93.80
10986;DHT22;5546;48.714;8.738;2024-02-04T12:54:45;13.20;94.10
10986;DHT22;5546;48.714;8.738;2024-02-04T12:57:13;13.30;94.40
10986;DHT22;5546;48.714;8.738;2024-02-04T12:59:46;13.50;94.10
10986;DHT22;5546;48.714;8.738;2024-02-04T13:02:14;13.40;94.20
10986;DHT22;5546;48.714;8.738;2024-02-04T13:04:40;13.30;94.10
10986;DHT22;5546;48.714;8.738;2024-02-04T13:07:12;12.90;94.70
10986;DHT22;5546;48.714;8.738;2024-02-04T13:09:45;13.20;94.70
10986;DHT22;5546;48.714;8.738;2024-02-04T13:12:11;13.80;93.70
10986;DHT22;5546;48.714;8.738;2024-02-04T13:14:41;13.80;93.60
10986;DHT22;5546;48.714;8.738;2024-02-04T13:17:06;13.60;94.10
10986;DHT22;5546;48.714;8.738;2024-02-04T13:19:36;13.40;94.30
10986;DHT22;5546;48.714;8.738;2024-02-04T13:22:03;13.60;94.10
10986;DHT22;5546;48.714;8.738;2024-02-04T13:24:29;13.60;93.90
10986;DHT22;5546;48.714;8.738;2024-02-04T13:26:55;14.20;93.60
10986;DHT22;5546;48.714;8.738;2024-02-04T13:29:21;14.40;93.00
10986;DHT22;5546;48.714;8.738;2024-02-04T13:31:47;14.50;92.80
10986;DHT22;5546;48.714;8.738;2024-02-04T13:34:12;14.20;92.90
10986;DHT22;5546;48.714;8.738;2024-02-04T13:36:38;14.00;93.30
10986;DHT22;5546;48.714;8.738;2024-02-04T13:41:31;13.00;94.50
10986;DHT22;5546;48.714;8.738;2024-02-04T13:43:57;12.80;95.00
10986;DHT22;5546;48.714;8.738;2024-02-04T13:46:22;12.70;95.40
10986;DHT22;5546;48.714;8.738;2024-02-04T13:48:48;12.90;95.30
10986;DHT22;5546;48.714;8.738;2024-02-04T13:51:13;13.00;95.00
10986;DHT22;5546;48.714;8.738;2024-02-04T13:53:39;13.10;95.00
10986;DHT22;5546;48.714;8.738;2024-02-04T13:56:04;12.70;95.20
10986;DHT22;5546;48.714;8.738;2024-02-04T13:58:30;12.60;95.80
10986;DHT22;5546;48.714;8.738;2024-02-04T14:00:55;12.70;95.60
10986;DHT22;5546;48.714;8.738;2024-02-04T14:03:21;12.50;95.70
10986;DHT22;5546;48.714;8.738;2024-02-04T14:05:46;12.50;95.90
10986;DHT22;5546;48.714;8.738;2024-02-04T14:08:12;12.10;96.60
10986;DHT22;5546;48.714;8.738;2024-02-04T14:10:37;12.40;96.40
10986;DHT22;5546;48.714;8.738;2024-02-04T14:13:04;12.50;96.60
10986;DHT22;5546;48.714;8.738;2024-02-04T14:15:30;12.50;95.80
10986;DHT22;5546;48.714;8.738;2024-02-04T14:17:56;12.50;95.80
10986;DHT22;5546;48.714;8.738;2024-02-04T14:20:22;12.50;95.90
10986;DHT22;5546;48.714;8.738;2024-02-04T14:22:48;12.60;95.90
10986;DHT22;5546;48.714;8.738;2024-02-04T14:25:13;12.60;95.80
10986;DHT22;5546;48.714;8.738;2024-02-04T14:27:39;13.10;95.10
10986;DHT22;5546;48.714;8.738;2024-02-04T14:30:05;13.20;94.90
10986;DHT22;5546;48.714;8.738;2024-02-04T14:32:32;13.40;94.70
10986;DHT22;5546;48.714;8.738;2024-02-04T14:34:57;13.60;94.40
10986;DHT22;5546;48.714;8.738;2024-02-04T14:37:23;13.70;94.40
10986;DHT22;5546;48.714;8.738;2024-02-04T14:39:49;13.70;94.20
10986;DHT22;5546;48.714;8.738;2024-02-04T14:42:15;13.50;94.30
10986;DHT22;5546;48.714;8.738;2024-02-04T14:44:41;13.30;94.60
10986;DHT22;5546;48.714;8.738;2024-02-04T14:47:07;13.20;95.00
10986;DHT22;5546;48.714;8.738;2024-02-04T14:49:32;13.50;94.60
10986;DHT22;5546;48.714;8.738;2024-02-04T14:51:58;13.50;94.90
10986;DHT22;5546;48.714;8.738;2024-02-04T14:54:23;12.50;96.10
10986;DHT22;5546;48.714;8.738;2024-02-04T14:56:49;12.60;96.20
10986;DHT22;5546;48.714;8.738;2024-02-04T14:59:16;12.70;95.90
10986;DHT22;5546;48.714;8.738;2024-02-04T15:01:45;12.70;96.20
10986;DHT22;5546;48.714;8.738;2024-02-04T15:04:12;12.90;95.90
10986;DHT22;5546;48.714;8.738;2024-02-04T15:06:39;13.10;95.60
10986;DHT22;5546;48.714;8.738;2024-02-04T15:09:05;13.00;95.70
10986;DHT22;5546;48.714;8.738;2024-02-04T15:11:30;13.10;95.60
10986;DHT22;5546;48.714;8.738;2024-02-04T15:13:57;12.70;96.20
10986;DHT22;5546;48.714;8.738;2024-02-04T15:16:23;13.20;95.60
10986;DHT22;5546;48.714;8.738;2024-02-04T15:18:49;13.50;94.90
10986;DHT22;5546;48.714;8.738;2024-02-04T15:21:15;13.70;94.80
10986;DHT22;5546;48.714;8.738;2024-02-04T15:23:41;13.60;94.60
10986;DHT22;5546;48.714;8.738;2024-02-04T15:26:07;13.00;95.50
10986;DHT22;5546;48.714;8.738;2024-02-04T15:28:37;13.00;95.60
10986;DHT22;5546;48.714;8.738;2024-02-04T15:31:03;12.80;95.80
10986;DHT22;5546;48.714;8.738;2024-02-04T15:33:29;12.80;95.90
10986;DHT22;5546;48.714;8.738;2024-02-04T15:35:54;13.00;95.80
10986;DHT22;5546;48.714;8.738;2024-02-04T15:38:20;12.90;95.80
10986;DHT22;5546;48.714;8.738;2024-02-04T15:40:48;12.70;96.20
10986;DHT22;5546;48.714;8.738;2024-02-04T15:45:40;12.80;96.20
10986;DHT22;5546;48.714;8.738;2024-02-04T15:48:09;12.70;96.60
10986;DHT22;5546;48.714;8.738;2024-02-04T15:50:36;12.90;96.10
10986;DHT22;5546;48.714;8.738;2024-02-04T15:53:02;12.80;96.30
10986;DHT22;5546;48.714;8.738;2024-02-04T15:55:29;12.70;96.40
10986;DHT22;5546;48.714;8.738;2024-02-04T15:57:56;12.90;96.20
10986;DHT22;5546;48.714;8.738;2024-02-04T16:00:24;13.00;96.10
10986;DHT22;5546;48.714;8.738;2024-02-04T16:02:54;12.60;96.80
10986;DHT22;5546;48.714;8.738;2024-02-04T16:05:21;12.90;96.30
10986;DHT22;5546;48.714;8.738;2024-02-04T16:10:15;12.70;96.60
10986;DHT22;5546;48.714;8.738;2024-02-04T16:12:54;13.00;96.10
10986;DHT22;5546;48.714;8.738;2024-02-04T16:15:23;12.80;96.20
10986;DHT22;5546;48.714;8.738;2024-02-04T16:17:49;12.60;96.50
10986;DHT22;5546;48.714;8.738;2024-02-04T16:20:14;12.50;96.90
10986;DHT22;5546;48.714;8.738;2024-02-04T16:22:42;12.60;96.80
10986;DHT22;5546;48.714;8.738;2024-02-04T16:25:07;12.50;97.00
10986;DHT22;5546;48.714;8.738;2024-02-04T16:27:35;12.30;97.40
10986;DHT22;5546;48.714;8.738;2024-02-04T16:30:01;12.10;97.50
10986;DHT22;5546;48.714;8.738;2024-02-04T16:32:26;12.30;97.30
10986;DHT22;5546;48.714;8.738;2024-02-04T16:34:52;12.20;97.40
10986;DHT22;5546;48.714;8.738;2024-02-04T16:37:17;12.10;97.60
10986;DHT22;5546;48.714;8.738;2024-02-04T16:39:43;12.40;97.50
10986;DHT22;5546;48.714;8.738;2024-02-04T16:42:09;12.50;97.10
10986;DHT22;5546;48.714;8.738;2024-02-04T16:44:35;12.80;96.90
10986;DHT22;5546;48.714;8.738;2024-02-04T16:47:01;12.50;97.20
10986;DHT22;5546;48.714;8.738;2024-02-04T16:49:27;12.60;96.90
10986;DHT22;5546;48.714;8.738;2024-02-04T16:51:52;12.90;96.70